sensor_id;sensor_type;location;lat;lon;timestamp;temperature;humidity
82243;DHT22;71844;51.528;4.442;2024-03-02T00:00:10;6.40;85.00
82243;DHT22;71844;51.528;4.442;2024-03-02T00:02:41;6.40;85.00
82243;DHT22;71844;51.528;4.442;2024-03-02T00:05:11;6.40;85.20
82243;DHT22;71844;51.528;4.442;2024-03-02T00:07:42;6.40;85.00
82243;DHT22;71844;51.528;4.442;2024-03-02T00:10:11;6.40;85.40
82243;DHT22;71844;51.528;4.442;2024-03-02T00:12:41;6.40;85.40
82243;DHT22;71844;51.528;4.442;2024-03-02T00:15:47;6.40;85.10
82243;DHT22;71844;51.528;4.442;2024-03-02T00:18:19;6.40;85.40
82243;DHT22;71844;51.528;4.442;2024-03-02T00:20:46;6.40;85.70
82243;DHT22;71844;51.528;4.442;2024-03-02T00:23:16;6.40;85.50
82243;DHT22;71844;51.528;4.442;2024-03-02T00:25:46;6.40;85.50
82243;DHT22;71844;51.528;4.442;2024-03-02T00:28:22;6.40;85.50
82243;DHT22;71844;51.528;4.442;2024-03-02T00:33:49;6.40;86.10
82243;DHT22;71844;51.528;4.442;2024-03-02T00:36:26;6.30;85.50
82243;DHT22;71844;51.528;4.442;2024-03-02T00:38:54;6.30;85.40
82243;DHT22;71844;51.528;4.442;2024-03-02T00:41:27;6.30;85.40
82243;DHT22;71844;51.528;4.442;2024-03-02T00:43:59;6.30;85.60
82243;DHT22;71844;51.528;4.442;2024-03-02T00:46:33;6.30;85.80
82243;DHT22;71844;51.528;4.442;2024-03-02T00:49:05;6.30;85.80
82243;DHT22;71844;51.528;4.442;2024-03-02T00:51:37;6.30;85.90
82243;DHT22;71844;51.528;4.442;2024-03-02T00:54:05;6.30;86.00
82243;DHT22;71844;51.528;4.442;2024-03-02T00:56:33;6.30;86.00
82243;DHT22;71844;51.528;4.442;2024-03-02T00:59:01;6.30;86.10
82243;DHT22;71844;51.528;4.442;2024-03-02T01:01:28;6.30;86.00
82243;DHT22;71844;51.528;4.442;2024-03-02T01:03:55;6.30;86.00
82243;DHT22;71844;51.528;4.442;2024-03-02T01:06:23;6.30;86.10
82243;DHT22;71844;51.528;4.442;2024-03-02T01:08:50;6.30;86.10
82243;DHT22;71844;51.528;4.442;2024-03-02T01:11:19;6.30;86.20
82243;DHT22;71844;51.528;4.442;2024-03-02T01:13:50;6.30;86.20
82243;DHT22;71844;51.528;4.442;2024-03-02T01:16:17;6.30;86.40
82243;DHT22;71844;51.528;4.442;2024-03-02T01:18:44;6.30;86.20
82243;DHT22;71844;51.528;4.442;2024-03-02T01:21:11;6.30;86.40
82243;DHT22;71844;51.528;4.442;2024-03-02T01:23:38;6.30;86.40
82243;DHT22;71844;51.528;4.442;2024-03-02T01:26:05;6.30;86.40
82243;DHT22;71844;51.528;4.442;2024-03-02T01:28:32;6.30;86.30
82243;DHT22;71844;51.528;4.442;2024-03-02T01:30:59;6.30;86.40
82243;DHT22;71844;51.528;4.442;2024-03-02T01:33:26;6.20;86.40
82243;DHT22;71844;51.528;4.442;2024-03-02T01:35:53;6.20;86.40
82243;DHT22;71844;51.528;4.442;2024-03-02T01:38:20;6.20;86.50
82243;DHT22;71844;51.528;4.442;2024-03-02T01:40:47;6.20;86.60
82243;DHT22;71844;51.528;4.442;2024-03-02T01:43:14;6.20;86.80
82243;DHT22;71844;51.528;4.442;2024-03-02T01:45:41;6.20;86.80
82243;DHT22;71844;51.528;4.442;2024-03-02T01:48:08;6.30;86.80
82243;DHT22;71844;51.528;4.442;2024-03-02T01:50:35;6.30;86.80
82243;DHT22;71844;51.528;4.442;2024-03-02T01:53:03;6.30;86.90
82243;DHT22;71844;51.528;4.442;2024-03-02T01:55:30;6.20;87.00
82243;DHT22;71844;51.528;4.442;2024-03-02T01:57:58;6.30;87.00
82243;DHT22;71844;51.528;4.442;2024-03-02T02:02:58;6.30;86.80
82243;DHT22;71844;51.528;4.442;2024-03-02T02:05:25;6.30;87.10
82243;DHT22;71844;51.528;4.442;2024-03-02T02:07:52;6.30;87.10
82243;DHT22;71844;51.528;4.442;2024-03-02T02:10:19;6.30;87.10
82243;DHT22;71844;51.528;4.442;2024-03-02T02:12:46;6.30;87.10
82243;DHT22;71844;51.528;4.442;2024-03-02T02:15:27;6.30;87.30
82243;DHT22;71844;51.528;4.442;2024-03-02T02:17:55;6.30;87.20
82243;DHT22;71844;51.528;4.442;2024-03-02T02:20:23;6.30;87.20
82243;DHT22;71844;51.528;4.442;2024-03-02T02:22:57;6.30;87.20
82243;DHT22;71844;51.528;4.442;2024-03-02T02:25:24;6.30;87.20
82243;DHT22;71844;51.528;4.442;2024-03-02T02:27:52;6.30;87.30
82243;DHT22;71844;51.528;4.442;2024-03-02T02:30:20;6.30;87.40
82243;DHT22;71844;51.528;4.442;2024-03-02T02:32:47;6.20;87.40
82243;DHT22;71844;51.528;4.442;2024-03-02T02:35:14;6.30;87.30
82243;DHT22;71844;51.528;4.442;2024-03-02T02:37:42;6.30;87.40
82243;DHT22;71844;51.528;4.442;2024-03-02T02:40:10;6.30;87.30
82243;DHT22;71844;51.528;4.442;2024-03-02T02:42:39;6.30;87.50
82243;DHT22;71844;51.528;4.442;2024-03-02T02:45:07;6.30;87.40
82243;DHT22;71844;51.528;4.442;2024-03-02T02:47:34;6.30;87.40
82243;DHT22;71844;51.528;4.442;2024-03-02T02:50:07;6.30;87.50
82243;DHT22;71844;51.528;4.442;2024-03-02T02:52:35;6.30;87.40
82243;DHT22;71844;51.528;4.442;2024-03-02T02:55:04;6.30;87.50
82243;DHT22;71844;51.528;4.442;2024-03-02T02:57:34;6.30;87.50
82243;DHT22;71844;51.528;4.442;2024-03-02T03:00:08;6.30;87.50
82243;DHT22;71844;51.528;4.442;2024-03-02T03:02:42;6.30;87.40
82243;DHT22;71844;51.528;4.442;2024-03-02T03:05:10;6.30;87.40
82243;DHT22;71844;51.528;4.442;2024-03-02T03:07:39;6.30;87.30
82243;DHT22;71844;51.528;4.442;2024-03-02T03:10:07;6.30;87.20
82243;DHT22;71844;51.528;4.442;2024-03-02T03:12:34;6.30;87.20
82243;DHT22;71844;51.528;4.442;2024-03-02T03:15:02;6.30;87.30
82243;DHT22;71844;51.528;4.442;2024-03-02T03:17:31;6.30;87.30
82243;DHT22;71844;51.528;4.442;2024-03-02T03:19:58;6.30;87.50
82243;DHT22;71844;51.528;4.442;2024-03-02T03:22:25;6.30;87.50
82243;DHT22;71844;51.528;4.442;2024-03-02T03:24:52;6.30;87.40
82243;DHT22;71844;51.528;4.442;2024-03-02T03:27:19;6.30;87.40
82243;DHT22;71844;51.528;4.442;2024-03-02T03:29:46;6.30;87.20
82243;DHT22;71844;51.528;4.442;2024-03-02T03:32:13;6.30;87.20
82243;DHT22;71844;51.528;4.442;2024-03-02T03:34:40;6.30;87.20
82243;DHT22;71844;51.528;4.442;2024-03-02T03:37:07;6.30;87.30
82243;DHT22;71844;51.528;4.442;2024-03-02T03:39:34;6.30;87.40
82243;DHT22;71844;51.528;4.442;2024-03-02T03:42:04;6.30;87.50
82243;DHT22;71844;51.528;4.442;2024-03-02T03:44:31;6.30;87.40
82243;DHT22;71844;51.528;4.442;2024-03-02T03:46:58;6.30;87.30
82243;DHT22;71844;51.528;4.442;2024-03-02T03:49:25;6.30;87.20
82243;DHT22;71844;51.528;4.442;2024-03-02T03:51:52;6.20;86.90
82243;DHT22;71844;51.528;4.442;2024-03-02T03:54:19;6.20;86.90
82243;DHT22;71844;51.528;4.442;2024-03-02T03:56:45;6.20;86.90
82243;DHT22;71844;51.528;4.442;2024-03-02T03:59:12;6.20;87.20
82243;DHT22;71844;51.528;4.442;2024-03-02T04:01:39;6.20;87.20
82243;DHT22;71844;51.528;4.442;2024-03-02T04:04:06;6.10;87.20
82243;DHT22;71844;51.528;4.442;2024-03-02T04:06:33;6.10;87.20
82243;DHT22;71844;51.528;4.442;2024-03-02T04:09:00;6.10;87.20
82243;DHT22;71844;51.528;4.442;2024-03-02T04:11:27;6.10;87.30
82243;DHT22;71844;51.528;4.442;2024-03-02T04:13:54;6.10;87.30
82243;DHT22;71844;51.528;4.442;2024-03-02T04:16:24;6.10;87.30
82243;DHT22;71844;51.528;4.442;2024-03-02T04:18:51;6.20;87.40
82243;DHT22;71844;51.528;4.442;2024-03-02T04:21:18;6.10;87.30
82243;DHT22;71844;51.528;4.442;2024-03-02T04:23:45;6.20;87.20
82243;DHT22;71844;51.528;4.442;2024-03-02T04:26:11;6.20;87.10
82243;DHT22;71844;51.528;4.442;2024-03-02T04:28:38;6.20;87.20
82243;DHT22;71844;51.528;4.442;2024-03-02T04:31:05;6.20;87.10
82243;DHT22;71844;51.528;4.442;2024-03-02T04:33:32;6.20;87.00
82243;DHT22;71844;51.528;4.442;2024-03-02T04:35:59;6.20;87.10
82243;DHT22;71844;51.528;4.442;2024-03-02T04:38:26;6.20;87.00
82243;DHT22;71844;51.528;4.442;2024-03-02T04:40:53;6.20;86.90
82243;DHT22;71844;51.528;4.442;2024-03-02T04:43:19;6.20;86.90
82243;DHT22;71844;51.528;4.442;2024-03-02T04:45:46;6.10;86.90
82243;DHT22;71844;51.528;4.442;2024-03-02T04:48:13;6.20;86.80
82243;DHT22;71844;51.528;4.442;2024-03-02T04:50:41;6.10;86.80
82243;DHT22;71844;51.528;4.442;2024-03-02T04:53:08;6.10;86.80
82243;DHT22;71844;51.528;4.442;2024-03-02T04:55:35;6.10;86.80
82243;DHT22;71844;51.528;4.442;2024-03-02T04:58:22;6.10;86.80
82243;DHT22;71844;51.528;4.442;2024-03-02T05:00:48;6.10;86.70
82243;DHT22;71844;51.528;4.442;2024-03-02T05:03:16;6.10;86.60
82243;DHT22;71844;51.528;4.442;2024-03-02T05:05:43;6.10;86.60
82243;DHT22;71844;51.528;4.442;2024-03-02T05:08:10;6.10;86.60
82243;DHT22;71844;51.528;4.442;2024-03-02T05:10:38;6.10;86.60
82243;DHT22;71844;51.528;4.442;2024-03-02T05:13:05;6.10;86.60
82243;DHT22;71844;51.528;4.442;2024-03-02T05:15:32;6.10;86.50
82243;DHT22;71844;51.528;4.442;2024-03-02T05:17:59;6.10;86.60
82243;DHT22;71844;51.528;4.442;2024-03-02T05:20:29;6.10;86.60
82243;DHT22;71844;51.528;4.442;2024-03-02T05:22:56;6.10;86.50
82243;DHT22;71844;51.528;4.442;2024-03-02T05:25:23;6.10;86.30
82243;DHT22;71844;51.528;4.442;2024-03-02T05:27:50;6.10;86.30
82243;DHT22;71844;51.528;4.442;2024-03-02T05:30:17;6.10;86.20
82243;DHT22;71844;51.528;4.442;2024-03-02T05:32:43;6.00;86.20
82243;DHT22;71844;51.528;4.442;2024-03-02T05:35:10;6.00;86.10
82243;DHT22;71844;51.528;4.442;2024-03-02T05:37:39;6.00;86.00
82243;DHT22;71844;51.528;4.442;2024-03-02T05:40:06;6.00;85.90
82243;DHT22;71844;51.528;4.442;2024-03-02T05:42:34;6.00;85.70
82243;DHT22;71844;51.528;4.442;2024-03-02T05:45:01;5.90;85.50
82243;DHT22;71844;51.528;4.442;2024-03-02T05:47:28;5.80;85.40
82243;DHT22;71844;51.528;4.442;2024-03-02T05:49:55;5.80;85.30
82243;DHT22;71844;51.528;4.442;2024-03-02T05:52:22;5.70;85.40
82243;DHT22;71844;51.528;4.442;2024-03-02T05:54:49;5.60;85.40
82243;DHT22;71844;51.528;4.442;2024-03-02T05:57:16;5.60;85.30
82243;DHT22;71844;51.528;4.442;2024-03-02T05:59:44;5.50;85.30
82243;DHT22;71844;51.528;4.442;2024-03-02T06:02:11;5.50;85.40
82243;DHT22;71844;51.528;4.442;2024-03-02T06:04:38;5.40;85.40
82243;DHT22;71844;51.528;4.442;2024-03-02T06:07:04;5.40;85.30
82243;DHT22;71844;51.528;4.442;2024-03-02T06:09:32;5.30;85.30
82243;DHT22;71844;51.528;4.442;2024-03-02T06:11:59;5.30;85.30
82243;DHT22;71844;51.528;4.442;2024-03-02T06:14:26;5.20;85.30
82243;DHT22;71844;51.528;4.442;2024-03-02T06:16:53;5.20;85.20
82243;DHT22;71844;51.528;4.442;2024-03-02T06:19:19;5.10;85.30
82243;DHT22;71844;51.528;4.442;2024-03-02T06:21:46;5.10;85.30
82243;DHT22;71844;51.528;4.442;2024-03-02T06:24:13;5.10;85.30
82243;DHT22;71844;51.528;4.442;2024-03-02T06:26:40;5.00;85.50
82243;DHT22;71844;51.528;4.442;2024-03-02T06:29:07;5.00;85.50
82243;DHT22;71844;51.528;4.442;2024-03-02T06:31:34;5.00;85.70
82243;DHT22;71844;51.528;4.442;2024-03-02T06:34:01;5.00;85.80
82243;DHT22;71844;51.528;4.442;2024-03-02T06:36:30;5.00;85.70
82243;DHT22;71844;51.528;4.442;2024-03-02T06:38:57;4.90;85.90
82243;DHT22;71844;51.528;4.442;2024-03-02T06:41:24;4.90;86.00
82243;DHT22;71844;51.528;4.442;2024-03-02T06:43:51;4.90;86.10
82243;DHT22;71844;51.528;4.442;2024-03-02T06:46:26;4.90;86.10
82243;DHT22;71844;51.528;4.442;2024-03-02T06:48:53;4.90;86.10
82243;DHT22;71844;51.528;4.442;2024-03-02T06:51:20;4.90;86.20
82243;DHT22;71844;51.528;4.442;2024-03-02T06:53:47;4.90;86.10
82243;DHT22;71844;51.528;4.442;2024-03-02T06:56:14;4.90;86.00
82243;DHT22;71844;51.528;4.442;2024-03-02T06:58:41;4.90;85.90
82243;DHT22;71844;51.528;4.442;2024-03-02T07:01:09;4.90;86.00
82243;DHT22;71844;51.528;4.442;2024-03-02T07:03:36;4.90;86.10
82243;DHT22;71844;51.528;4.442;2024-03-02T07:06:04;4.90;86.10
82243;DHT22;71844;51.528;4.442;2024-03-02T07:08:31;4.90;86.00
82243;DHT22;71844;51.528;4.442;2024-03-02T07:10:58;4.90;86.20
82243;DHT22;71844;51.528;4.442;2024-03-02T07:13:24;4.90;86.30
82243;DHT22;71844;51.528;4.442;2024-03-02T07:15:52;4.90;86.40
82243;DHT22;71844;51.528;4.442;2024-03-02T07:18:21;4.90;86.40
82243;DHT22;71844;51.528;4.442;2024-03-02T07:20:48;5.00;86.40
82243;DHT22;71844;51.528;4.442;2024-03-02T07:23:16;4.90;86.30
82243;DHT22;71844;51.528;4.442;2024-03-02T07:25:43;4.90;86.30
82243;DHT22;71844;51.528;4.442;2024-03-02T07:28:13;5.00;86.30
82243;DHT22;71844;51.528;4.442;2024-03-02T07:30:41;5.00;86.30
82243;DHT22;71844;51.528;4.442;2024-03-02T07:33:08;5.00;86.40
82243;DHT22;71844;51.528;4.442;2024-03-02T07:35:35;5.00;86.50
82243;DHT22;71844;51.528;4.442;2024-03-02T07:38:02;5.10;86.60
82243;DHT22;71844;51.528;4.442;2024-03-02T07:40:28;5.10;86.60
82243;DHT22;71844;51.528;4.442;2024-03-02T07:42:56;5.10;86.60
82243;DHT22;71844;51.528;4.442;2024-03-02T07:45:23;5.20;86.50
82243;DHT22;71844;51.528;4.442;2024-03-02T07:47:50;5.20;86.50
82243;DHT22;71844;51.528;4.442;2024-03-02T07:50:17;5.30;86.50
82243;DHT22;71844;51.528;4.442;2024-03-02T07:52:44;5.30;86.50
82243;DHT22;71844;51.528;4.442;2024-03-02T07:55:11;5.40;86.70
82243;DHT22;71844;51.528;4.442;2024-03-02T07:57:38;5.50;86.80
82243;DHT22;71844;51.528;4.442;2024-03-02T08:00:06;5.60;87.00
82243;DHT22;71844;51.528;4.442;2024-03-02T08:02:33;5.80;87.00
82243;DHT22;71844;51.528;4.442;2024-03-02T08:04:59;5.90;86.70
82243;DHT22;71844;51.528;4.442;2024-03-02T08:07:27;6.00;86.50
82243;DHT22;71844;51.528;4.442;2024-03-02T08:09:54;6.10;86.40
82243;DHT22;71844;51.528;4.442;2024-03-02T08:12:21;6.20;85.60
82243;DHT22;71844;51.528;4.442;2024-03-02T08:14:50;6.20;85.10
82243;DHT22;71844;51.528;4.442;2024-03-02T08:17:17;6.20;85.00
82243;DHT22;71844;51.528;4.442;2024-03-02T08:19:44;6.20;85.00
82243;DHT22;71844;51.528;4.442;2024-03-02T08:22:11;6.20;85.10
82243;DHT22;71844;51.528;4.442;2024-03-02T08:24:38;6.20;85.00
82243;DHT22;71844;51.528;4.442;2024-03-02T08:27:05;6.20;85.00
82243;DHT22;71844;51.528;4.442;2024-03-02T08:29:32;6.20;85.00
82243;DHT22;71844;51.528;4.442;2024-03-02T08:31:59;6.30;85.80
82243;DHT22;71844;51.528;4.442;2024-03-02T08:34:26;6.50;86.40
82243;DHT22;71844;51.528;4.442;2024-03-02T08:36:53;6.90;87.50
82243;DHT22;71844;51.528;4.442;2024-03-02T08:39:20;7.30;86.90
82243;DHT22;71844;51.528;4.442;2024-03-02T08:41:47;7.80;86.60
82243;DHT22;71844;51.528;4.442;2024-03-02T08:44:15;8.20;86.10
82243;DHT22;71844;51.528;4.442;2024-03-02T08:46:42;8.70;85.40
82243;DHT22;71844;51.528;4.442;2024-03-02T08:49:09;9.10;84.30
82243;DHT22;71844;51.528;4.442;2024-03-02T08:51:36;9.30;84.10
82243;DHT22;71844;51.528;4.442;2024-03-02T08:54:03;9.60;84.30
82243;DHT22;71844;51.528;4.442;2024-03-02T08:56:31;9.90;84.10
82243;DHT22;71844;51.528;4.442;2024-03-02T08:58:58;10.20;83.90
82243;DHT22;71844;51.528;4.442;2024-03-02T09:01:25;10.50;83.10
82243;DHT22;71844;51.528;4.442;2024-03-02T09:03:52;10.80;82.30
82243;DHT22;71844;51.528;4.442;2024-03-02T09:06:19;11.10;80.90
82243;DHT22;71844;51.528;4.442;2024-03-02T09:08:47;11.40;80.70
82243;DHT22;71844;51.528;4.442;2024-03-02T09:11:16;11.70;79.70
82243;DHT22;71844;51.528;4.442;2024-03-02T09:13:43;12.00;80.10
82243;DHT22;71844;51.528;4.442;2024-03-02T09:16:11;12.40;78.80
82243;DHT22;71844;51.528;4.442;2024-03-02T09:18:38;12.90;78.20
82243;DHT22;71844;51.528;4.442;2024-03-02T09:21:05;13.40;76.90
82243;DHT22;71844;51.528;4.442;2024-03-02T09:23:33;13.60;75.60
82243;DHT22;71844;51.528;4.442;2024-03-02T09:26:00;13.70;73.60
82243;DHT22;71844;51.528;4.442;2024-03-02T09:28:28;13.70;73.60
82243;DHT22;71844;51.528;4.442;2024-03-02T09:30:55;13.90;72.60
82243;DHT22;71844;51.528;4.442;2024-03-02T09:33:26;14.00;70.80
82243;DHT22;71844;51.528;4.442;2024-03-02T09:35:53;14.10;70.20
82243;DHT22;71844;51.528;4.442;2024-03-02T09:38:21;14.20;69.50
82243;DHT22;71844;51.528;4.442;2024-03-02T09:40:48;14.40;68.60
82243;DHT22;71844;51.528;4.442;2024-03-02T09:43:15;14.10;66.40
82243;DHT22;71844;51.528;4.442;2024-03-02T09:45:43;13.90;67.30
82243;DHT22;71844;51.528;4.442;2024-03-02T09:48:11;14.00;66.60
82243;DHT22;71844;51.528;4.442;2024-03-02T09:50:38;14.20;65.80
82243;DHT22;71844;51.528;4.442;2024-03-02T09:53:05;14.50;65.50
82243;DHT22;71844;51.528;4.442;2024-03-02T09:55:33;14.90;65.00
82243;DHT22;71844;51.528;4.442;2024-03-02T09:58:00;15.30;63.80
82243;DHT22;71844;51.528;4.442;2024-03-02T10:00:28;15.70;62.50
82243;DHT22;71844;51.528;4.442;2024-03-02T10:46:36;15.00;54.30
82243;DHT22;71844;51.528;4.442;2024-03-02T10:49:04;14.50;55.50
82243;DHT22;71844;51.528;4.442;2024-03-02T10:51:34;14.20;55.20
82243;DHT22;71844;51.528;4.442;2024-03-02T10:54:04;14.00;55.30
82243;DHT22;71844;51.528;4.442;2024-03-02T10:56:39;13.80;55.70
82243;DHT22;71844;51.528;4.442;2024-03-02T10:59:32;13.60;55.60
82243;DHT22;71844;51.528;4.442;2024-03-02T11:02:01;13.50;55.70
82243;DHT22;71844;51.528;4.442;2024-03-02T11:04:32;13.50;55.90
82243;DHT22;71844;51.528;4.442;2024-03-02T11:07:06;13.70;55.90
82243;DHT22;71844;51.528;4.442;2024-03-02T11:09:35;14.00;56.00
82243;DHT22;71844;51.528;4.442;2024-03-02T11:12:09;14.60;55.90
82243;DHT22;71844;51.528;4.442;2024-03-02T11:14:41;15.40;52.40
82243;DHT22;71844;51.528;4.442;2024-03-02T11:17:13;16.20;55.00
82243;DHT22;71844;51.528;4.442;2024-03-02T11:19:43;17.00;54.70
82243;DHT22;71844;51.528;4.442;2024-03-02T11:22:11;17.70;53.00
82243;DHT22;71844;51.528;4.442;2024-03-02T11:24:38;18.30;52.10
82243;DHT22;71844;51.528;4.442;2024-03-02T11:27:06;18.70;51.30
82243;DHT22;71844;51.528;4.442;2024-03-02T11:29:42;18.90;49.50
82243;DHT22;71844;51.528;4.442;2024-03-02T11:32:15;18.60;49.20
82243;DHT22;71844;51.528;4.442;2024-03-02T11:34:44;18.50;49.50
82243;DHT22;71844;51.528;4.442;2024-03-02T11:37:18;18.70;49.30
82243;DHT22;71844;51.528;4.442;2024-03-02T11:39:46;18.90;48.80
82243;DHT22;71844;51.528;4.442;2024-03-02T11:42:13;19.10;48.50
82243;DHT22;71844;51.528;4.442;2024-03-02T11:44:43;19.50;48.10
82243;DHT22;71844;51.528;4.442;2024-03-02T11:47:14;19.90;47.00
82243;DHT22;71844;51.528;4.442;2024-03-02T11:49:49;20.00;45.90
82243;DHT22;71844;51.528;4.442;2024-03-02T11:52:16;19.90;44.90
82243;DHT22;71844;51.528;4.442;2024-03-02T11:54:45;19.40;44.80
82243;DHT22;71844;51.528;4.442;2024-03-02T11:57:19;18.70;44.80
82243;DHT22;71844;51.528;4.442;2024-03-02T11:59:46;18.00;45.30
82243;DHT22;71844;51.528;4.442;2024-03-02T12:02:18;17.40;45.90
82243;DHT22;71844;51.528;4.442;2024-03-02T12:04:46;17.10;46.20
82243;DHT22;71844;51.528;4.442;2024-03-02T12:07:21;16.90;46.40
82243;DHT22;71844;51.528;4.442;2024-03-02T12:09:59;16.70;46.40
82243;DHT22;71844;51.528;4.442;2024-03-02T12:12:27;16.60;47.20
82243;DHT22;71844;51.528;4.442;2024-03-02T12:14:54;16.80;47.20
82243;DHT22;71844;51.528;4.442;2024-03-02T12:17:22;16.90;47.20
82243;DHT22;71844;51.528;4.442;2024-03-02T12:19:49;16.90;47.40
82243;DHT22;71844;51.528;4.442;2024-03-02T12:22:17;16.80;47.20
82243;DHT22;71844;51.528;4.442;2024-03-02T12:24:44;16.50;47.30
82243;DHT22;71844;51.528;4.442;2024-03-02T12:27:15;16.20;47.60
82243;DHT22;71844;51.528;4.442;2024-03-02T12:29:43;15.90;48.00
82243;DHT22;71844;51.528;4.442;2024-03-02T12:32:10;15.70;48.20
82243;DHT22;71844;51.528;4.442;2024-03-02T12:34:38;15.50;48.50
82243;DHT22;71844;51.528;4.442;2024-03-02T12:37:05;15.20;48.70
82243;DHT22;71844;51.528;4.442;2024-03-02T12:39:32;14.90;49.10
82243;DHT22;71844;51.528;4.442;2024-03-02T12:42:00;14.70;49.70
82243;DHT22;71844;51.528;4.442;2024-03-02T12:44:29;14.60;49.90
82243;DHT22;71844;51.528;4.442;2024-03-02T12:46:56;14.70;50.10
82243;DHT22;71844;51.528;4.442;2024-03-02T12:49:26;14.70;50.40
82243;DHT22;71844;51.528;4.442;2024-03-02T12:51:55;14.80;50.30
82243;DHT22;71844;51.528;4.442;2024-03-02T12:54:24;14.60;50.30
82243;DHT22;71844;51.528;4.442;2024-03-02T12:56:52;14.50;50.50
82243;DHT22;71844;51.528;4.442;2024-03-02T12:59:23;14.40;51.00
82243;DHT22;71844;51.528;4.442;2024-03-02T13:01:54;14.30;51.20
82243;DHT22;71844;51.528;4.442;2024-03-02T13:04:25;14.30;51.10
82243;DHT22;71844;51.528;4.442;2024-03-02T13:06:52;14.30;51.30
82243;DHT22;71844;51.528;4.442;2024-03-02T13:09:20;14.40;51.50
82243;DHT22;71844;51.528;4.442;2024-03-02T13:11:48;14.50;51.60
82243;DHT22;71844;51.528;4.442;2024-03-02T13:14:15;14.50;51.30
82243;DHT22;71844;51.528;4.442;2024-03-02T13:16:42;14.50;51.40
82243;DHT22;71844;51.528;4.442;2024-03-02T13:19:13;14.50;51.80
82243;DHT22;71844;51.528;4.442;2024-03-02T13:21:40;14.50;51.60
82243;DHT22;71844;51.528;4.442;2024-03-02T13:24:07;14.50;51.60
82243;DHT22;71844;51.528;4.442;2024-03-02T13:26:35;14.50;51.80
82243;DHT22;71844;51.528;4.442;2024-03-02T13:29:02;14.40;52.00
82243;DHT22;71844;51.528;4.442;2024-03-02T13:31:29;14.30;52.10
82243;DHT22;71844;51.528;4.442;2024-03-02T13:33:56;14.20;52.10
82243;DHT22;71844;51.528;4.442;2024-03-02T13:36:23;14.10;52.50
82243;DHT22;71844;51.528;4.442;2024-03-02T13:38:51;14.10;52.80
82243;DHT22;71844;51.528;4.442;2024-03-02T13:41:17;14.10;52.90
82243;DHT22;71844;51.528;4.442;2024-03-02T13:43:44;14.10;52.80
82243;DHT22;71844;51.528;4.442;2024-03-02T13:46:12;14.00;52.90
82243;DHT22;71844;51.528;4.442;2024-03-02T13:48:39;14.00;53.00
82243;DHT22;71844;51.528;4.442;2024-03-02T13:51:06;14.00;53.20
82243;DHT22;71844;51.528;4.442;2024-03-02T13:53:32;13.90;53.00
82243;DHT22;71844;51.528;4.442;2024-03-02T13:56:02;13.90;53.30
82243;DHT22;71844;51.528;4.442;2024-03-02T13:58:29;13.90;53.40
82243;DHT22;71844;51.528;4.442;2024-03-02T14:00:56;14.00;53.40
82243;DHT22;71844;51.528;4.442;2024-03-02T14:03:24;14.00;53.40
82243;DHT22;71844;51.528;4.442;2024-03-02T14:05:53;14.00;53.50
82243;DHT22;71844;51.528;4.442;2024-03-02T14:08:20;14.00;53.80
82243;DHT22;71844;51.528;4.442;2024-03-02T14:13:43;14.30;53.50
82243;DHT22;71844;51.528;4.442;2024-03-02T14:16:15;14.30;53.60
82243;DHT22;71844;51.528;4.442;2024-03-02T14:18:42;14.30;53.10
82243;DHT22;71844;51.528;4.442;2024-03-02T14:21:09;14.20;53.20
82243;DHT22;71844;51.528;4.442;2024-03-02T14:23:36;14.10;53.30
82243;DHT22;71844;51.528;4.442;2024-03-02T14:26:03;14.00;53.40
82243;DHT22;71844;51.528;4.442;2024-03-02T14:28:30;13.80;53.80
82243;DHT22;71844;51.528;4.442;2024-03-02T14:31:16;13.80;54.10
82243;DHT22;71844;51.528;4.442;2024-03-02T14:33:43;13.70;54.30
82243;DHT22;71844;51.528;4.442;2024-03-02T14:36:10;13.70;54.30
82243;DHT22;71844;51.528;4.442;2024-03-02T14:38:37;13.60;54.50
82243;DHT22;71844;51.528;4.442;2024-03-02T14:41:04;13.50;54.80
82243;DHT22;71844;51.528;4.442;2024-03-02T14:43:31;13.50;55.10
82243;DHT22;71844;51.528;4.442;2024-03-02T14:45:58;13.40;55.40
82243;DHT22;71844;51.528;4.442;2024-03-02T14:48:26;13.30;55.80
82243;DHT22;71844;51.528;4.442;2024-03-02T14:50:53;13.20;56.20
82243;DHT22;71844;51.528;4.442;2024-03-02T14:53:20;13.20;56.70
82243;DHT22;71844;51.528;4.442;2024-03-02T14:55:47;13.20;56.90
82243;DHT22;71844;51.528;4.442;2024-03-02T14:58:14;13.20;57.00
82243;DHT22;71844;51.528;4.442;2024-03-02T15:00:44;13.30;57.30
82243;DHT22;71844;51.528;4.442;2024-03-02T15:03:11;13.40;57.10
82243;DHT22;71844;51.528;4.442;2024-03-02T15:05:39;13.50;56.90
82243;DHT22;71844;51.528;4.442;2024-03-02T15:08:06;13.60;57.00
82243;DHT22;71844;51.528;4.442;2024-03-02T15:10:34;13.70;56.90
82243;DHT22;71844;51.528;4.442;2024-03-02T15:13:01;13.80;56.90
82243;DHT22;71844;51.528;4.442;2024-03-02T15:15:28;13.90;56.90
82243;DHT22;71844;51.528;4.442;2024-03-02T15:17:55;14.00;56.60
82243;DHT22;71844;51.528;4.442;2024-03-02T15:20:22;14.00;56.50
82243;DHT22;71844;51.528;4.442;2024-03-02T15:22:49;14.00;56.10
82243;DHT22;71844;51.528;4.442;2024-03-02T15:25:17;14.00;56.20
82243;DHT22;71844;51.528;4.442;2024-03-02T15:27:44;13.90;56.10
82243;DHT22;71844;51.528;4.442;2024-03-02T15:30:11;13.80;56.20
82243;DHT22;71844;51.528;4.442;2024-03-02T15:32:38;13.80;56.40
82243;DHT22;71844;51.528;4.442;2024-03-02T15:35:10;13.70;56.50
82243;DHT22;71844;51.528;4.442;2024-03-02T15:37:37;13.60;56.40
82243;DHT22;71844;51.528;4.442;2024-03-02T15:40:04;13.60;56.50
82243;DHT22;71844;51.528;4.442;2024-03-02T15:42:35;13.50;56.50
82243;DHT22;71844;51.528;4.442;2024-03-02T15:45:03;13.40;56.60
82243;DHT22;71844;51.528;4.442;2024-03-02T15:47:31;13.30;56.50
82243;DHT22;71844;51.528;4.442;2024-03-02T15:49:57;13.20;56.70
82243;DHT22;71844;51.528;4.442;2024-03-02T15:52:24;13.20;56.80
82243;DHT22;71844;51.528;4.442;2024-03-02T15:54:51;13.10;56.90
82243;DHT22;71844;51.528;4.442;2024-03-02T15:57:19;13.10;57.00
82243;DHT22;71844;51.528;4.442;2024-03-02T15:59:47;13.00;57.20
82243;DHT22;71844;51.528;4.442;2024-03-02T16:02:14;13.00;57.40
82243;DHT22;71844;51.528;4.442;2024-03-02T16:04:41;12.90;57.70
82243;DHT22;71844;51.528;4.442;2024-03-02T16:07:08;12.90;58.10
82243;DHT22;71844;51.528;4.442;2024-03-02T16:09:35;12.80;58.30
82243;DHT22;71844;51.528;4.442;2024-03-02T16:12:02;12.70;58.50
82243;DHT22;71844;51.528;4.442;2024-03-02T16:14:29;12.60;58.70
82243;DHT22;71844;51.528;4.442;2024-03-02T16:16:56;12.60;59.00
82243;DHT22;71844;51.528;4.442;2024-03-02T16:19:24;12.60;59.30
82243;DHT22;71844;51.528;4.442;2024-03-02T16:21:58;12.60;59.50
82243;DHT22;71844;51.528;4.442;2024-03-02T16:24:25;12.60;59.80
82243;DHT22;71844;51.528;4.442;2024-03-02T16:26:53;12.50;59.90
82243;DHT22;71844;51.528;4.442;2024-03-02T16:29:19;12.50;60.20
82243;DHT22;71844;51.528;4.442;2024-03-02T16:31:46;12.40;60.50
82243;DHT22;71844;51.528;4.442;2024-03-02T16:34:13;12.30;61.10
82243;DHT22;71844;51.528;4.442;2024-03-02T16:36:40;12.20;61.30